»·PEaware :: EJA345 KSAN-KHND

EJA345 :: KSAN-KHND

FLIGHT INFORMATION

Flight Status: Arrived
Operator:
Netjets Aviation
More flights by this operator :: More flights under this callsign
Pilot: Rickie R. (16324)
Aircraft: BOMBARDIER BD-100 CHALLENGER 300
(CL30)
More flights by this aircraft type
Origin: KSAN San Diego Intl-Lindbergh
United States
Destination: KHND Henderson
United States
More flights between these airports :: More routes between these airports
Route: +BRDR7 JLI TRM TNP CLARR3
File this flight plan on PilotEdge
Remarks: No SIDs STARS
Altitude:
(Current/Filed)
19,000ft
Speed:
(Current/Filed)
280kts
Departed: 10-Oct-17 04:19 PM
Arrived: 10-Oct-17 05:19 PM
Distance/Time
Traveled:
219nm/1:00
Distance/Time
To Go:
Arrived

Flight Plot

Page will automatically refresh every two minutes.

Flight plan parsing failed; only flown route is shown


Map Options




Map Legend


Flown Route
Filed Route
Departure Airport
Arrival Airport
Navaid (VOR, NDB)
Fix

Horizontal Profiles

Position Reports

Time Latitude Longitude Heading Altitude Ground
Speed
10-Oct-17 15:45 32.732418 -117.176634 194 24ft 0kts
10-Oct-17 15:46 32.732418 -117.176634 194 24ft 0kts
10-Oct-17 15:47 32.732418 -117.176634 194 24ft 0kts
10-Oct-17 15:48 32.732418 -117.176634 194 24ft 0kts
10-Oct-17 15:49 32.732418 -117.176634 194 24ft 0kts
10-Oct-17 15:50 32.732418 -117.176634 194 24ft 0kts
10-Oct-17 15:51 32.732418 -117.176634 194 24ft 0kts
10-Oct-17 15:52 32.732418 -117.176634 194 24ft 0kts
10-Oct-17 15:53 32.732418 -117.176634 194 24ft 0kts
10-Oct-17 15:54 32.732418 -117.176634 194 24ft 0kts
10-Oct-17 15:55 32.732418 -117.176634 194 24ft 0kts
10-Oct-17 15:56 32.732418 -117.176634 194 24ft 0kts
10-Oct-17 15:57 32.732418 -117.176634 194 24ft 0kts
10-Oct-17 15:58 32.732418 -117.176634 194 24ft 0kts
10-Oct-17 15:59 32.732418 -117.176634 194 24ft 0kts
10-Oct-17 16:00 32.732418 -117.176634 194 24ft 0kts
10-Oct-17 16:01 32.732418 -117.176634 194 24ft 0kts
10-Oct-17 16:02 32.732418 -117.176634 194 24ft 0kts
10-Oct-17 16:03 32.732418 -117.176634 194 24ft 0kts
10-Oct-17 16:04 32.732418 -117.176634 194 24ft 0kts
10-Oct-17 16:05 32.732418 -117.176634 194 24ft 0kts
10-Oct-17 16:06 32.732418 -117.176634 194 24ft 0kts
10-Oct-17 16:07 32.732418 -117.176634 194 24ft 0kts
10-Oct-17 16:08 32.732418 -117.176634 194 24ft 0kts
10-Oct-17 16:08 32.732418 -117.176634 194 24ft 0kts
10-Oct-17 16:10 32.732418 -117.176634 194 24ft 0kts
10-Oct-17 16:10 32.732418 -117.176634 194 24ft 0kts
10-Oct-17 16:12 32.732418 -117.176634 194 24ft 0kts
10-Oct-17 16:12 32.732418 -117.176634 194 24ft 0kts
10-Oct-17 16:13 32.732418 -117.176634 194 24ft 0kts
10-Oct-17 16:14 32.732418 -117.176634 194 24ft 0kts
10-Oct-17 16:16 32.732418 -117.176634 194 24ft 0kts
10-Oct-17 16:16 32.732418 -117.176634 194 24ft 0kts
10-Oct-17 16:17 32.732418 -117.176634 194 24ft 0kts
10-Oct-17 16:18 32.731798 -117.176261 139 24ft 8kts
10-Oct-17 16:19 32.731111 -117.175558 138 24ft 0kts
10-Oct-17 16:20 32.731111 -117.175558 138 24ft 0kts
10-Oct-17 16:21 32.731111 -117.175558 138 24ft 0kts
10-Oct-17 16:22 32.730925 -117.175368 138 24ft 6kts
10-Oct-17 16:23 32.731015 -117.179162 285 20ft 78kts
10-Oct-17 16:24 32.741744 -117.226515 286 1711ft 186kts
10-Oct-17 16:25 32.757922 -117.287326 288 4976ft 210kts
10-Oct-17 16:26 32.751907 -117.348054 193 7851ft 236kts
10-Oct-17 16:27 32.699427 -117.306056 132 11107ft 248kts
10-Oct-17 16:28 32.652602 -117.247558 134 14214ft 248kts
10-Oct-17 16:29 32.622947 -117.167204 98 15016ft 305kts
10-Oct-17 16:30 32.616307 -117.067712 91 15000ft 288kts
10-Oct-17 16:31 32.617155 -116.973867 91 15002ft 281kts
10-Oct-17 16:32 32.621441 -116.883475 80 15001ft 276kts
10-Oct-17 16:33 32.640775 -116.795685 48 15005ft 282kts
10-Oct-17 16:34 32.712643 -116.761871 17 15368ft 274kts
10-Oct-17 16:35 32.779402 -116.735653 17 16760ft 229kts
10-Oct-17 16:36 32.832853 -116.713679 16 18115ft 195kts
10-Oct-17 16:37 32.887679 -116.690608 17 19002ft 244kts
10-Oct-17 16:38 32.964792 -116.659286 16 18992ft 344kts
10-Oct-17 16:39 33.067064 -116.618201 16 18983ft 427kts
10-Oct-17 16:40 33.173157 -116.571038 33 18948ft 380kts
10-Oct-17 16:41 33.254659 -116.498243 35 18951ft 359kts
10-Oct-17 16:42 33.333885 -116.427159 35 18934ft 354kts
10-Oct-17 16:43 33.412398 -116.356620 35 18928ft 353kts
10-Oct-17 16:44 33.490624 -116.286272 34 18928ft 353kts
10-Oct-17 16:45 33.569532 -116.215277 34 18927ft 357kts
10-Oct-17 16:46 33.649102 -116.143661 34 18928ft 360kts
10-Oct-17 16:47 33.733627 -116.080900 15 18939ft 357kts
10-Oct-17 16:48 33.827992 -116.043227 16 18928ft 360kts
10-Oct-17 16:49 33.918933 -115.991640 25 18928ft 364kts
10-Oct-17 16:50 33.996695 -115.913053 39 18996ft 366kts
10-Oct-17 16:51 34.073239 -115.832375 39 19071ft 365kts
10-Oct-17 16:52 34.147680 -115.749031 42 19091ft 367kts
10-Oct-17 16:53 34.219811 -115.661522 47 19092ft 369kts
10-Oct-17 16:54 34.292276 -115.573971 39 19092ft 370kts
10-Oct-17 16:55 34.375046 -115.504632 20 19094ft 366kts
10-Oct-17 16:56 34.469433 -115.460034 18 19092ft 367kts
10-Oct-17 16:57 34.563877 -115.416800 17 19085ft 369kts
10-Oct-17 16:58 34.659188 -115.374148 17 19032ft 371kts
10-Oct-17 16:59 34.755775 -115.330908 17 19000ft 372kts
10-Oct-17 17:00 34.852904 -115.287384 17 18869ft 376kts
10-Oct-17 17:01 34.952367 -115.242961 17 18063ft 386kts
10-Oct-17 17:02 35.051820 -115.198505 17 17067ft 377kts
10-Oct-17 17:03 35.142770 -115.222232 320 16066ft 347kts
10-Oct-17 17:04 35.217657 -115.294444 318 15072ft 340kts
10-Oct-17 17:05 35.290273 -115.366501 318 14078ft 334kts
10-Oct-17 17:06 35.361495 -115.437556 318 13090ft 327kts
10-Oct-17 17:07 35.429709 -115.505633 318 13026ft 310kts
10-Oct-17 17:08 35.499382 -115.569218 321 13030ft 318kts
10-Oct-17 17:09 35.571513 -115.634806 321 13009ft 328kts
10-Oct-17 17:10 35.645685 -115.702115 325 13001ft 335kts
10-Oct-17 17:11 35.722002 -115.664170 66 13024ft 346kts
10-Oct-17 17:12 35.760747 -115.554234 66 13009ft 352kts
10-Oct-17 17:13 35.799505 -115.444277 66 13005ft 343kts
10-Oct-17 17:14 35.859734 -115.366153 46 12992ft 314kts
10-Oct-17 17:15 35.871564 -115.263041 91 12158ft 309kts
10-Oct-17 17:16 35.871174 -115.161392 91 11126ft 281kts
10-Oct-17 17:17 35.870780 -115.067891 91 9180ft 263kts
10-Oct-17 17:18 35.864772 -114.988289 141 7984ft 199kts
10-Oct-17 17:19 35.844925 -115.021409 323 8013ft 190kts
10-Oct-17 17:20 35.877907 -115.072179 261 6911ft 227kts
10-Oct-17 17:21 35.901061 -115.126344 333 5457ft 182kts
10-Oct-17 17:22 35.947249 -115.136013 0 2968ft 149kts
10-Oct-17 17:23 35.974269 -115.135450 338 2431ft 9kts
10-Oct-17 17:24 35.974412 -115.136969 270 2430ft 9kts
10-Oct-17 17:25 35.974451 -115.139636 270 2427ft 2kts
10-Oct-17 17:26 35.974640 -115.140477 356 2424ft 0kts
10-Oct-17 17:27 35.974640 -115.140477 356 2424ft 0kts

Navigation Log

Ident Type
Flight plan parsing failed, navigation log unavailable